KGED/GED METAR and TAF weather

Enter ICAO airport designator
Station Type Date Time Source
KGED METAR 2024/04/15 07:54 UTC NOAA

KGED 150754Z AUTO 00000KT 10SM CLR 14/09 A2980 RMK AO2 SLP090 T01390094


Station Type Date Time Source
KGED Decoded METAR 2024/04/15 07:54 UTC NOAA

GEORGETOWN SUSSEX CO AIRPORT , DE, United States (KGED) 38-41N 075-22W 19M
Apr 15, 2024 - 03:54 AM EDT / 2024.04.15 0754 UTC
Wind: Calm:0
Visibility: 10 mile(s):0
Sky conditions: clear
Temperature: 57.0 F (13.9 C)
Dew Point: 48.9 F (9.4 C)
Relative Humidity: 74%
Pressure (altimeter): 29.8 in. Hg (1009 hPa)
ob: KGED 150754Z AUTO 00000KT 10SM CLR 14/09 A2980 RMK AO2 SLP090 T01390094
cycle: 8

Station Type Date Time Source
KGED TAF UTC NOAA

Error!

Example: see airport list